Briefing drone pour Jussac

Rechercher une autre localisation

Conditions de vol :


Nous sommes le : Mercredi 12 mai 2021
Il est 23:37 UTC (01:37 LT)

Lever de soleil : 03:57 UTC (05:57 LT)
Coucher de soleil : 19:35 UTC (21:35 LT)

Météo

L'essentiel des conditions de vol

VIGILANCE MÉTÉO FRANCE - Cantal (15)
Pas de vigilances particulieres
CARTE TEMSI
CARTES DES FRONTS
METAR de LFLW
LFLW 112300Z AUTO 23001KT 4200 0750 R15/P2000 BCFG NSC 04/04 Q1018

Date d'émission: 11/05/2021
Heure d'émission: 23:00 UTC
Vent: 230° pour 1 KT (2 km/h)
Visibilité horizontale: 4200/0750 m
Plafond : Pas de nuages significatifs (NSC)
Température: 4 °C
Point de rosée: 4 °C
Humidité: 100%
Pression (QNH): 1018 hPa
Conditions: Banc de brouillard
Prévision 24h pour Aurillac (5 km)
Vent : 224° pour 3 KT (12 km/h)
Temperature Maxi: 9 °C
Temperature Min: 9 °C
Humidité : 89%
Condition : Légère pluie



Warning: count(): Parameter must be an array or an object that implements Countable in /homepages/6/d509196549/htdocs/droneoxygene/briefing.php on line 743
WEBCAM POUR JUSSAC

Réglementation

Voler en sécurité

CARTES AERONAUTIQUE 1/500.000
CARTES VAC (LFLW)
SUP AIP




Chargement des AIP...
NOTAM (JUSSAC + Terrain à proximité / FIR )




Chargement des NOTAMS...
CONTACT PREFECTURE 15


Avertissement : Les données mises à disposition sont indicatives. Oxygène Drone ne pourra être tenu responsable de dégâts causés aux biens et aux personnes.